Time;durP1;ratioP1;P1;durP2;ratioP2;P2;SDS_P1;SDS_P2;PMS_P1;PMS_P2;Temp;Humidity;BMP_temperature;BMP_pressure;BME280_temperature;BME280_humidity;BME280_pressure;Samples;Min_cycle;Max_cycle;Signal;HPM_P1;HPM_P2
2023/12/05 00:01:37;;;;;;;34.90;16.93;;;;;;;;;;5019511;28;20190;-74
2023/12/05 00:04:03;;;;;;;32.77;17.20;;;;;;;;;;5029749;28;20510;-74
2023/12/05 00:06:29;;;;;;;33.47;17.40;;;;;;;;;;5031494;28;20683;-74
2023/12/05 00:08:54;;;;;;;37.40;17.57;;;;;;;;;;5030453;28;20213;-74
2023/12/05 00:11:21;;;;;;;34.70;16.07;;;;;;;;;;5035447;28;20190;-74
2023/12/05 00:13:46;;;;;;;31.27;16.83;;;;;;;;;;5030324;28;20198;-74
2023/12/05 00:16:11;;;;;;;35.80;17.33;;;;;;;;;;5031566;28;20235;-74
2023/12/05 00:18:37;;;;;;;37.67;18.50;;;;;;;;;;5035609;28;20239;-74
2023/12/05 00:21:03;;;;;;;36.93;19.33;;;;;;;;;;5030803;28;20546;-74
2023/12/05 00:23:29;;;;;;;34.80;17.50;;;;;;;;;;5035119;28;20193;-75
2023/12/05 00:25:54;;;;;;;35.47;18.17;;;;;;;;;;5034501;28;20194;-75
2023/12/05 00:28:20;;;;;;;35.67;18.63;;;;;;;;;;5026430;28;20216;-74
2023/12/05 00:30:45;;;;;;;38.97;18.20;;;;;;;;;;5034517;28;20543;-77
2023/12/05 00:33:11;;;;;;;34.50;18.93;;;;;;;;;;5042660;28;20179;-76
2023/12/05 00:35:36;;;;;;;37.40;19.33;;;;;;;;;;5023676;28;20603;-76
2023/12/05 00:38:01;;;;;;;37.93;19.97;;;;;;;;;;5035480;28;20209;-76
2023/12/05 00:40:29;;;;;;;36.17;20.00;;;;;;;;;;5036171;28;20272;-76
2023/12/05 00:42:56;;;;;;;32.97;18.53;;;;;;;;;;5037424;28;20631;-76
2023/12/05 00:45:22;;;;;;;38.07;20.53;;;;;;;;;;5031740;28;20188;-76
2023/12/05 00:47:48;;;;;;;38.93;20.37;;;;;;;;;;5034607;28;20190;-76
2023/12/05 00:50:13;;;;;;;38.37;20.50;;;;;;;;;;5037446;28;20217;-76
2023/12/05 00:52:39;;;;;;;38.90;19.00;;;;;;;;;;5034484;28;20313;-76
2023/12/05 00:55:04;;;;;;;38.57;20.40;;;;;;;;;;5030329;28;20198;-76
2023/12/05 00:57:30;;;;;;;38.97;20.50;;;;;;;;;;5037945;28;20190;-76
2023/12/05 00:59:56;;;;;;;41.87;20.37;;;;;;;;;;5026827;28;20194;-76
2023/12/05 01:02:22;;;;;;;39.50;21.13;;;;;;;;;;5029187;28;20194;-76
2023/12/05 01:04:49;;;;;;;40.90;21.20;;;;;;;;;;5033025;28;20197;-76
2023/12/05 01:07:14;;;;;;;38.80;21.37;;;;;;;;;;5023982;28;20662;-75
2023/12/05 01:09:40;;;;;;;41.87;21.43;;;;;;;;;;5036188;28;20210;-75
2023/12/05 01:12:08;;;;;;;39.90;21.67;;;;;;;;;;5027634;28;20232;-75
2023/12/05 01:14:34;;;;;;;40.53;20.40;;;;;;;;;;5026599;28;20665;-76
2023/12/05 01:16:59;;;;;;;40.70;20.83;;;;;;;;;;5036280;28;20189;-76
2023/12/05 01:19:24;;;;;;;36.10;19.60;;;;;;;;;;5032421;28;20203;-76
2023/12/05 01:21:50;;;;;;;38.53;19.90;;;;;;;;;;5030850;28;20440;-77
2023/12/05 01:24:15;;;;;;;40.63;20.27;;;;;;;;;;5025575;28;20539;-77
2023/12/05 01:26:41;;;;;;;40.83;21.07;;;;;;;;;;5040649;28;20189;-74
2023/12/05 01:29:06;;;;;;;39.57;20.80;;;;;;;;;;5029656;28;20222;-74
2023/12/05 01:31:32;;;;;;;38.97;21.07;;;;;;;;;;5031919;28;20186;-74
2023/12/05 01:33:57;;;;;;;38.80;19.67;;;;;;;;;;5028444;28;20194;-74
2023/12/05 01:36:22;;;;;;;40.93;20.07;;;;;;;;;;5036442;28;20263;-74
2023/12/05 01:38:48;;;;;;;43.87;22.13;;;;;;;;;;5029056;28;20182;-74
2023/12/05 01:41:13;;;;;;;40.80;20.67;;;;;;;;;;5027075;28;20191;-75
2023/12/05 01:43:39;;;;;;;42.83;20.10;;;;;;;;;;5028648;28;20178;-75
2023/12/05 01:46:05;;;;;;;37.90;19.83;;;;;;;;;;5027866;28;20427;-75
2023/12/05 01:48:33;;;;;;;37.83;19.97;;;;;;;;;;5032598;28;20233;-75
2023/12/05 01:51:01;;;;;;;42.20;21.10;;;;;;;;;;5039498;28;20193;-75
2023/12/05 01:53:27;;;;;;;39.83;20.87;;;;;;;;;;5014309;28;20213;-75
2023/12/05 01:55:53;;;;;;;41.50;20.77;;;;;;;;;;5023241;28;20245;-75
2023/12/05 01:58:19;;;;;;;42.47;21.97;;;;;;;;;;5038714;28;20581;-75
2023/12/05 02:00:45;;;;;;;38.00;19.70;;;;;;;;;;5026034;28;20195;-75
2023/12/05 02:03:10;;;;;;;43.13;20.60;;;;;;;;;;5034166;28;20710;-75
2023/12/05 02:05:37;;;;;;;41.07;21.00;;;;;;;;;;5036217;28;20196;-75
2023/12/05 02:08:02;;;;;;;40.63;21.80;;;;;;;;;;5040706;28;20293;-75
2023/12/05 02:10:28;;;;;;;41.43;21.03;;;;;;;;;;5034631;28;20269;-75
2023/12/05 02:12:53;;;;;;;41.63;20.00;;;;;;;;;;5038304;28;20181;-75
2023/12/05 02:15:19;;;;;;;41.57;20.33;;;;;;;;;;5035783;28;20642;-75
2023/12/05 02:17:56;;;;;;;41.73;21.30;;;;;;;;;;5028752;28;20234;-75
2023/12/05 02:20:40;;;;;;;41.57;21.27;;;;;;;;;;5025036;28;20237;-75
2023/12/05 02:23:39;;;;;;;42.40;20.03;;;;;;;;;;5027111;28;20190;-75
2023/12/05 02:26:13;;;;;;;38.27;20.43;;;;;;;;;;5025869;28;20247;-75
2023/12/05 02:28:38;;;;;;;39.90;19.87;;;;;;;;;;5031924;28;20217;-75
2023/12/05 02:31:05;;;;;;;46.03;22.27;;;;;;;;;;5024360;28;20638;-75
2023/12/05 02:33:30;;;;;;;43.47;21.00;;;;;;;;;;5024267;28;20217;-75
2023/12/05 02:36:23;;;;;;;44.10;21.70;;;;;;;;;;5032193;28;20660;-75
2023/12/05 02:38:56;;;;;;;40.20;21.67;;;;;;;;;;5044094;28;20658;-75
2023/12/05 02:41:28;;;;;;;44.90;22.07;;;;;;;;;;5033471;28;20213;-75
2023/12/05 02:44:06;;;;;;;46.07;22.20;;;;;;;;;;5033040;28;20682;-75
2023/12/05 02:46:33;;;;;;;44.40;20.73;;;;;;;;;;5023653;28;20244;-75
2023/12/05 02:48:59;;;;;;;43.67;22.27;;;;;;;;;;5042768;28;20213;-78
2023/12/05 02:51:25;;;;;;;41.03;21.60;;;;;;;;;;5037623;28;20186;-76
2023/12/05 02:53:50;;;;;;;43.37;22.30;;;;;;;;;;5023023;28;20296;-79
2023/12/05 02:56:18;;;;;;;46.43;21.97;;;;;;;;;;5034080;28;20206;-78
2023/12/05 02:58:43;;;;;;;43.97;23.03;;;;;;;;;;5029763;28;20692;-78
2023/12/05 03:01:09;;;;;;;43.40;21.20;;;;;;;;;;5041049;28;20276;-78
2023/12/05 03:03:34;;;;;;;45.23;21.90;;;;;;;;;;5033913;28;20259;-78
2023/12/05 03:06:00;;;;;;;44.90;21.63;;;;;;;;;;5032212;28;20214;-78
2023/12/05 03:08:25;;;;;;;42.47;20.77;;;;;;;;;;5040565;28;20280;-78
2023/12/05 03:10:51;;;;;;;41.87;20.97;;;;;;;;;;5036346;28;20276;-78
2023/12/05 03:13:16;;;;;;;41.77;21.20;;;;;;;;;;5023380;28;20190;-78
2023/12/05 03:15:41;;;;;;;41.40;21.30;;;;;;;;;;5030252;28;20226;-78
2023/12/05 03:18:07;;;;;;;47.93;22.60;;;;;;;;;;5029602;28;20202;-78
2023/12/05 03:20:32;;;;;;;43.20;22.90;;;;;;;;;;5032698;28;20478;-78
2023/12/05 03:22:59;;;;;;;45.53;22.23;;;;;;;;;;5033663;28;20213;-77
2023/12/05 03:25:24;;;;;;;43.07;21.50;;;;;;;;;;5029565;28;20193;-78
2023/12/05 03:27:50;;;;;;;46.60;21.03;;;;;;;;;;5032994;28;20190;-78
2023/12/05 03:30:15;;;;;;;43.90;21.27;;;;;;;;;;5031839;28;20222;-78
2023/12/05 03:32:40;;;;;;;42.00;20.93;;;;;;;;;;5033260;28;20194;-78
2023/12/05 03:35:06;;;;;;;43.47;21.03;;;;;;;;;;5038661;28;20577;-78
2023/12/05 03:37:32;;;;;;;40.60;21.20;;;;;;;;;;5033919;28;20193;-78
2023/12/05 03:39:57;;;;;;;44.10;22.23;;;;;;;;;;5045472;28;20684;-77
2023/12/05 03:42:22;;;;;;;40.67;21.80;;;;;;;;;;5039416;28;20270;-76
2023/12/05 03:44:48;;;;;;;40.37;21.40;;;;;;;;;;5036100;28;20197;-75
2023/12/05 03:47:13;;;;;;;43.60;21.03;;;;;;;;;;5037557;28;20216;-77
2023/12/05 03:49:39;;;;;;;36.83;20.23;;;;;;;;;;5034134;28;20570;-76
2023/12/05 03:52:05;;;;;;;41.33;20.57;;;;;;;;;;5028116;28;20193;-76
2023/12/05 03:54:31;;;;;;;40.90;20.67;;;;;;;;;;5027656;28;20212;-77
2023/12/05 03:56:56;;;;;;;42.00;20.63;;;;;;;;;;5041563;28;20293;-77
2023/12/05 03:59:22;;;;;;;38.70;20.57;;;;;;;;;;5036986;28;20268;-77
2023/12/05 04:01:47;;;;;;;41.50;21.27;;;;;;;;;;5031982;28;20190;-77
2023/12/05 04:04:12;;;;;;;39.97;21.07;;;;;;;;;;5040369;28;20629;-77
2023/12/05 04:06:38;;;;;;;40.10;21.63;;;;;;;;;;5016213;28;20550;-77
2023/12/05 04:09:06;;;;;;;44.77;20.73;;;;;;;;;;5023221;28;20204;-76
2023/12/05 04:11:33;;;;;;;39.90;19.93;;;;;;;;;;5033146;28;20201;-77
2023/12/05 04:14:00;;;;;;;41.90;20.97;;;;;;;;;;5037156;28;20303;-77
2023/12/05 04:16:26;;;;;;;38.70;20.63;;;;;;;;;;5036194;28;20226;-77
2023/12/05 04:18:51;;;;;;;41.17;20.43;;;;;;;;;;5035473;28;20206;-76
2023/12/05 04:21:18;;;;;;;42.03;21.63;;;;;;;;;;5013782;28;20553;-76
2023/12/05 04:23:44;;;;;;;41.13;21.17;;;;;;;;;;5029400;28;20186;-76
2023/12/05 04:26:14;;;;;;;44.20;21.80;;;;;;;;;;5037150;28;20637;-76
2023/12/05 04:28:39;;;;;;;47.50;22.17;;;;;;;;;;5025212;28;20232;-76
2023/12/05 04:31:05;;;;;;;39.07;20.97;;;;;;;;;;5015195;28;20555;-75
2023/12/05 04:33:30;;;;;;;44.37;22.13;;;;;;;;;;5022261;28;20186;-76
2023/12/05 04:35:56;;;;;;;41.93;21.47;;;;;;;;;;5029440;28;20182;-76
2023/12/05 04:38:21;;;;;;;47.83;24.17;;;;;;;;;;5025940;28;20190;-76
2023/12/05 04:40:46;;;;;;;38.17;21.20;;;;;;;;;;5033065;28;20186;-76
2023/12/05 04:43:12;;;;;;;43.57;23.07;;;;;;;;;;5023608;28;20181;-76
2023/12/05 04:45:38;;;;;;;42.10;23.20;;;;;;;;;;5024233;28;20190;-76
2023/12/05 04:48:03;;;;;;;46.90;23.23;;;;;;;;;;5034222;28;20178;-76
2023/12/05 04:50:29;;;;;;;44.53;22.87;;;;;;;;;;5023745;28;20182;-76
2023/12/05 04:52:54;;;;;;;44.93;22.03;;;;;;;;;;5016268;28;20210;-77
2023/12/05 04:55:20;;;;;;;42.63;23.27;;;;;;;;;;5022876;28;20653;-76
2023/12/05 04:57:45;;;;;;;42.40;22.17;;;;;;;;;;5048976;28;20189;-76
2023/12/05 05:00:13;;;;;;;46.97;23.57;;;;;;;;;;5035126;28;20184;-76
2023/12/05 05:02:38;;;;;;;44.13;23.60;;;;;;;;;;5028991;28;20201;-76
2023/12/05 05:05:04;;;;;;;44.93;24.23;;;;;;;;;;5044223;28;20190;-76
2023/12/05 05:07:29;;;;;;;43.93;23.43;;;;;;;;;;5043905;28;20190;-76
2023/12/05 05:09:55;;;;;;;46.00;22.87;;;;;;;;;;5023046;28;20399;-76
2023/12/05 05:12:21;;;;;;;44.70;22.57;;;;;;;;;;5036323;28;20500;-76
2023/12/05 05:14:46;;;;;;;44.50;22.93;;;;;;;;;;5032571;28;20283;-76
2023/12/05 05:17:12;;;;;;;44.07;23.83;;;;;;;;;;5037277;28;20198;-76
2023/12/05 05:19:37;;;;;;;44.83;22.40;;;;;;;;;;5026631;28;20202;-76
2023/12/05 05:22:03;;;;;;;42.70;23.50;;;;;;;;;;5021959;28;20564;-76
2023/12/05 05:24:28;;;;;;;45.63;22.93;;;;;;;;;;5031990;28;20193;-76
2023/12/05 05:26:54;;;;;;;44.00;23.03;;;;;;;;;;5027671;28;20190;-76
2023/12/05 05:29:19;;;;;;;47.67;23.27;;;;;;;;;;5025281;28;20617;-76
2023/12/05 05:31:45;;;;;;;45.77;23.40;;;;;;;;;;5037587;28;20206;-76
2023/12/05 05:34:10;;;;;;;46.87;23.37;;;;;;;;;;5030586;28;20185;-76
2023/12/05 05:36:35;;;;;;;48.03;23.90;;;;;;;;;;5029887;28;20194;-76
2023/12/05 05:39:01;;;;;;;45.37;23.33;;;;;;;;;;5028194;28;20221;-76
2023/12/05 05:41:27;;;;;;;41.63;20.90;;;;;;;;;;5033767;28;20211;-76
2023/12/05 05:43:53;;;;;;;42.07;22.77;;;;;;;;;;5028618;28;20244;-76
2023/12/05 05:46:18;;;;;;;45.37;23.17;;;;;;;;;;5034409;28;20235;-76
2023/12/05 05:48:44;;;;;;;43.83;22.43;;;;;;;;;;5022920;28;20210;-76
2023/12/05 05:51:09;;;;;;;40.57;22.43;;;;;;;;;;5051326;28;20783;-76
2023/12/05 05:53:35;;;;;;;45.10;24.77;;;;;;;;;;5030596;28;20194;-76
2023/12/05 05:56:00;;;;;;;46.53;22.97;;;;;;;;;;5029122;28;20193;-76
2023/12/05 05:58:26;;;;;;;48.17;23.57;;;;;;;;;;5031358;28;20283;-77
2023/12/05 06:00:51;;;;;;;44.23;22.43;;;;;;;;;;5013574;28;20309;-76
2023/12/05 06:03:17;;;;;;;48.40;24.63;;;;;;;;;;5022262;28;20202;-76
2023/12/05 06:05:42;;;;;;;46.80;23.93;;;;;;;;;;5020914;28;20213;-76
2023/12/05 06:08:08;;;;;;;45.07;24.23;;;;;;;;;;5039263;28;20196;-76
2023/12/05 06:10:35;;;;;;;49.93;25.13;;;;;;;;;;5033596;28;20186;-76
2023/12/05 06:13:00;;;;;;;48.67;24.07;;;;;;;;;;5020220;28;20201;-76
2023/12/05 06:15:26;;;;;;;48.23;24.40;;;;;;;;;;5023005;28;20221;-76
2023/12/05 06:17:51;;;;;;;47.73;23.97;;;;;;;;;;5024966;28;20217;-76
2023/12/05 06:20:17;;;;;;;44.63;22.57;;;;;;;;;;5028222;28;20216;-76
2023/12/05 06:22:42;;;;;;;47.73;24.60;;;;;;;;;;5022698;28;20205;-76
2023/12/05 06:25:08;;;;;;;47.30;25.07;;;;;;;;;;5016073;28;20340;-76
2023/12/05 06:27:33;;;;;;;49.97;23.87;;;;;;;;;;5023095;28;20194;-76
2023/12/05 06:29:59;;;;;;;48.53;23.77;;;;;;;;;;5026030;28;20572;-76
2023/12/05 06:32:24;;;;;;;44.57;23.23;;;;;;;;;;5030212;28;20190;-76
2023/12/05 06:34:49;;;;;;;48.73;25.30;;;;;;;;;;5017191;28;20204;-76
2023/12/05 06:37:15;;;;;;;45.13;22.53;;;;;;;;;;5031382;28;20504;-76
2023/12/05 06:39:40;;;;;;;45.93;25.00;;;;;;;;;;5019919;28;20179;-76
2023/12/05 06:42:06;;;;;;;45.87;23.43;;;;;;;;;;5034511;28;20266;-76
2023/12/05 06:44:31;;;;;;;50.90;24.50;;;;;;;;;;5027694;28;20201;-76
2023/12/05 06:46:56;;;;;;;55.40;26.03;;;;;;;;;;5030050;28;20194;-76
2023/12/05 06:49:22;;;;;;;49.07;23.50;;;;;;;;;;5022489;28;20201;-76
2023/12/05 06:51:55;;;;;;;50.27;24.80;;;;;;;;;;5019094;28;20213;-76
2023/12/05 06:54:21;;;;;;;52.47;26.13;;;;;;;;;;5025049;28;20248;-76
2023/12/05 06:56:47;;;;;;;50.27;25.40;;;;;;;;;;5031004;28;20584;-76
2023/12/05 06:59:13;;;;;;;46.63;23.77;;;;;;;;;;5031200;28;20239;-76
2023/12/05 07:01:39;;;;;;;48.97;25.90;;;;;;;;;;5028298;28;20198;-76
2023/12/05 07:04:05;;;;;;;44.03;24.03;;;;;;;;;;5029257;28;20186;-75
2023/12/05 07:06:31;;;;;;;50.37;25.37;;;;;;;;;;5018796;28;20205;-76
2023/12/05 07:08:56;;;;;;;47.53;24.67;;;;;;;;;;5030579;28;20214;-75
2023/12/05 07:11:25;;;;;;;52.40;25.63;;;;;;;;;;5016785;28;20225;-76
2023/12/05 07:13:50;;;;;;;46.77;24.03;;;;;;;;;;5013695;28;20198;-76
2023/12/05 07:16:16;;;;;;;49.37;24.53;;;;;;;;;;5021641;28;20284;-76
2023/12/05 07:18:41;;;;;;;47.50;25.50;;;;;;;;;;5019715;28;20257;-76
2023/12/05 07:21:08;;;;;;;47.33;23.97;;;;;;;;;;5025398;28;20541;-75
2023/12/05 07:23:34;;;;;;;47.57;24.73;;;;;;;;;;5029503;28;20194;-76
2023/12/05 07:25:59;;;;;;;53.60;26.73;;;;;;;;;;5029136;28;20186;-75
2023/12/05 07:28:24;;;;;;;47.73;25.33;;;;;;;;;;5015787;28;20206;-75
2023/12/05 07:30:50;;;;;;;53.47;26.93;;;;;;;;;;5016775;28;20277;-76
2023/12/05 07:33:15;;;;;;;50.80;26.13;;;;;;;;;;5023296;28;20195;-76
2023/12/05 07:35:41;;;;;;;50.23;25.50;;;;;;;;;;4998368;28;20187;-76
2023/12/05 07:38:07;;;;;;;47.73;23.87;;;;;;;;;;5011349;28;20198;-76
2023/12/05 07:40:32;;;;;;;49.43;25.83;;;;;;;;;;5029956;28;20701;-76
2023/12/05 07:42:58;;;;;;;51.67;26.70;;;;;;;;;;5023346;28;20226;-76
2023/12/05 07:45:23;;;;;;;52.00;25.40;;;;;;;;;;5019373;28;20198;-76
2023/12/05 07:47:49;;;;;;;51.80;25.60;;;;;;;;;;5022748;28;20194;-76
2023/12/05 07:50:14;;;;;;;52.40;26.73;;;;;;;;;;5023411;28;20221;-76
2023/12/05 07:52:40;;;;;;;55.20;28.27;;;;;;;;;;5045575;28;20198;-76
2023/12/05 07:55:06;;;;;;;54.67;26.87;;;;;;;;;;5014201;28;20275;-76
2023/12/05 07:57:31;;;;;;;52.07;25.50;;;;;;;;;;5028914;28;20194;-76
2023/12/05 07:59:57;;;;;;;51.00;25.33;;;;;;;;;;5018071;28;20186;-76
2023/12/05 08:02:22;;;;;;;56.00;27.13;;;;;;;;;;5029183;28;20194;-76
2023/12/05 08:04:48;;;;;;;57.60;27.63;;;;;;;;;;5012839;28;20190;-76
2023/12/05 08:07:13;;;;;;;55.73;27.10;;;;;;;;;;5019523;28;20563;-76
2023/12/05 08:09:39;;;;;;;53.43;27.10;;;;;;;;;;5026717;28;20214;-76
2023/12/05 08:12:05;;;;;;;54.33;27.90;;;;;;;;;;5030046;28;20221;-76
2023/12/05 08:14:30;;;;;;;59.00;27.13;;;;;;;;;;4996205;28;21721;-77
2023/12/05 08:16:56;;;;;;;60.23;27.97;;;;;;;;;;5030495;28;20202;-77
2023/12/05 08:19:21;;;;;;;53.03;26.93;;;;;;;;;;5017109;28;20614;-77
2023/12/05 08:21:46;;;;;;;53.47;26.57;;;;;;;;;;5031390;28;20190;-77
2023/12/05 08:24:12;;;;;;;58.30;28.20;;;;;;;;;;5026214;28;20198;-77
2023/12/05 08:26:37;;;;;;;67.13;28.83;;;;;;;;;;5041686;28;20194;-77
2023/12/05 08:29:03;;;;;;;59.63;27.50;;;;;;;;;;5040120;28;20203;-77
2023/12/05 08:31:28;;;;;;;66.50;29.33;;;;;;;;;;5011110;28;20201;-77
2023/12/05 08:33:54;;;;;;;56.17;26.13;;;;;;;;;;5013347;28;20439;-77
2023/12/05 08:36:19;;;;;;;61.63;28.03;;;;;;;;;;5010209;28;20701;-77
2023/12/05 08:38:44;;;;;;;56.10;27.40;;;;;;;;;;5014696;28;20191;-77
2023/12/05 08:41:16;;;;;;;60.67;29.13;;;;;;;;;;5018651;28;20221;-77
2023/12/05 08:43:42;;;;;;;61.60;28.93;;;;;;;;;;5006522;28;20205;-77
2023/12/05 08:46:07;;;;;;;61.63;29.10;;;;;;;;;;5026126;28;20182;-77
2023/12/05 08:48:33;;;;;;;63.63;29.50;;;;;;;;;;5028925;28;20206;-77
2023/12/05 08:50:58;;;;;;;57.60;28.43;;;;;;;;;;5024714;28;20190;-77
2023/12/05 08:53:24;;;;;;;58.53;28.53;;;;;;;;;;5029289;28;20576;-77
2023/12/05 08:55:49;;;;;;;58.63;27.67;;;;;;;;;;5024413;28;20202;-77
2023/12/05 08:58:15;;;;;;;57.10;27.73;;;;;;;;;;5040709;28;20201;-77
2023/12/05 09:00:41;;;;;;;58.83;26.93;;;;;;;;;;5012476;28;20186;-77
2023/12/05 09:03:06;;;;;;;59.77;27.80;;;;;;;;;;5022586;28;20189;-77
2023/12/05 09:05:32;;;;;;;55.53;25.30;;;;;;;;;;5021449;28;20268;-78
2023/12/05 09:07:57;;;;;;;61.23;28.10;;;;;;;;;;5029892;28;20190;-78
2023/12/05 09:10:23;;;;;;;57.43;27.17;;;;;;;;;;5029833;28;20214;-78
2023/12/05 09:12:48;;;;;;;60.10;28.00;;;;;;;;;;5012055;28;20209;-78
2023/12/05 09:15:14;;;;;;;56.87;28.73;;;;;;;;;;5018001;28;20373;-78
2023/12/05 09:17:39;;;;;;;55.23;27.57;;;;;;;;;;5021662;28;20668;-78
2023/12/05 09:20:05;;;;;;;58.03;27.30;;;;;;;;;;5011052;28;20266;-78
2023/12/05 09:22:30;;;;;;;60.87;27.57;;;;;;;;;;5015951;28;20198;-78
2023/12/05 09:24:56;;;;;;;56.27;26.73;;;;;;;;;;5001037;28;20186;-78
2023/12/05 09:27:21;;;;;;;55.10;27.73;;;;;;;;;;5016888;28;20190;-78
2023/12/05 09:29:47;;;;;;;56.80;27.63;;;;;;;;;;5022269;28;20245;-78
2023/12/05 09:32:12;;;;;;;54.90;27.17;;;;;;;;;;5018152;28;20599;-78
2023/12/05 09:34:38;;;;;;;59.50;27.80;;;;;;;;;;5023146;28;20277;-78
2023/12/05 09:37:04;;;;;;;54.03;28.33;;;;;;;;;;5000816;28;20183;-78
2023/12/05 09:39:31;;;;;;;58.97;27.67;;;;;;;;;;5009065;28;20191;-77
2023/12/05 09:42:01;;;;;;;56.10;27.40;;;;;;;;;;5028838;28;20190;-77
2023/12/05 09:44:30;;;;;;;51.97;26.17;;;;;;;;;;5033177;28;20225;-77
2023/12/05 09:46:58;;;;;;;53.43;27.20;;;;;;;;;;5020103;28;20189;-77
2023/12/05 09:49:27;;;;;;;57.03;27.27;;;;;;;;;;5013132;28;20206;-77
2023/12/05 09:51:56;;;;;;;53.30;25.77;;;;;;;;;;5027840;28;20592;-78
2023/12/05 09:54:24;;;;;;;52.93;27.37;;;;;;;;;;5027832;28;20204;-76
2023/12/05 09:56:52;;;;;;;56.77;28.13;;;;;;;;;;5028440;28;20575;-77
2023/12/05 09:59:18;;;;;;;59.10;27.80;;;;;;;;;;5044807;28;20186;-77
2023/12/05 10:01:44;;;;;;;55.27;28.13;;;;;;;;;;5025046;28;20626;-76
2023/12/05 10:04:11;;;;;;;61.83;29.50;;;;;;;;;;5020093;28;20201;-76
2023/12/05 10:06:37;;;;;;;60.40;29.47;;;;;;;;;;5027153;28;20274;-77
2023/12/05 10:09:06;;;;;;;59.67;29.00;;;;;;;;;;5020603;28;20306;-77
2023/12/05 10:11:33;;;;;;;55.20;27.30;;;;;;;;;;5013200;28;20210;-77
2023/12/05 10:13:58;;;;;;;58.20;28.50;;;;;;;;;;5020209;28;20222;-77
2023/12/05 10:16:26;;;;;;;57.07;28.47;;;;;;;;;;5015313;28;20656;-77
2023/12/05 10:18:52;;;;;;;58.47;29.23;;;;;;;;;;5027705;28;20259;-77
2023/12/05 10:21:17;;;;;;;61.33;30.10;;;;;;;;;;5017354;28;20190;-77
2023/12/05 10:23:43;;;;;;;60.60;30.10;;;;;;;;;;5018389;28;20186;-77
2023/12/05 10:26:08;;;;;;;65.70;30.43;;;;;;;;;;5027345;28;20190;-77
2023/12/05 10:28:49;;;;;;;61.07;29.43;;;;;;;;;;5013769;28;20197;-77
2023/12/05 10:31:15;;;;;;;64.20;28.87;;;;;;;;;;5045130;28;20192;-78
2023/12/05 10:33:40;;;;;;;61.07;29.67;;;;;;;;;;5026852;28;20719;-78
2023/12/05 10:36:11;;;;;;;66.97;31.10;;;;;;;;;;5039787;28;20231;-78
2023/12/05 10:38:36;;;;;;;65.93;32.57;;;;;;;;;;5027978;28;20197;-77
2023/12/05 10:41:02;;;;;;;67.80;31.63;;;;;;;;;;5026482;28;20186;-77
2023/12/05 10:43:30;;;;;;;66.37;32.20;;;;;;;;;;5024678;28;20189;-77
2023/12/05 10:45:57;;;;;;;61.37;31.27;;;;;;;;;;5024581;28;20680;-78
2023/12/05 10:48:23;;;;;;;66.20;31.93;;;;;;;;;;5033805;28;20197;-78
2023/12/05 10:50:51;;;;;;;67.43;31.57;;;;;;;;;;5026499;28;20296;-78
2023/12/05 10:53:17;;;;;;;68.87;32.23;;;;;;;;;;5028148;28;20189;-78
2023/12/05 10:55:43;;;;;;;71.80;33.40;;;;;;;;;;5018007;28;20193;-78
2023/12/05 10:58:09;;;;;;;71.13;33.30;;;;;;;;;;5012723;28;20224;-78
2023/12/05 11:00:39;;;;;;;63.23;31.40;;;;;;;;;;5032181;28;20622;-78
2023/12/05 11:03:05;;;;;;;69.63;33.63;;;;;;;;;;5012274;28;20206;-78
2023/12/05 11:05:32;;;;;;;62.73;30.70;;;;;;;;;;4999104;28;20893;-78
2023/12/05 11:07:59;;;;;;;68.80;32.87;;;;;;;;;;4994927;28;20182;-78
2023/12/05 11:10:28;;;;;;;67.93;33.07;;;;;;;;;;5028530;28;20214;-79
2023/12/05 11:12:56;;;;;;;76.37;35.70;;;;;;;;;;5009699;28;20202;-79
2023/12/05 11:15:27;;;;;;;72.47;34.60;;;;;;;;;;5020122;28;20237;-79
2023/12/05 11:18:01;;;;;;;71.17;33.90;;;;;;;;;;5025615;28;20210;-78
2023/12/05 11:21:18;;;;;;;71.53;33.30;;;;;;;;;;5012341;28;20698;-79
2023/12/05 11:24:08;;;;;;;67.37;31.07;;;;;;;;;;4995777;28;20237;-79
2023/12/05 11:26:39;;;;;;;63.43;29.30;;;;;;;;;;5014302;28;20261;-78
2023/12/05 11:29:42;;;;;;;68.40;30.70;;;;;;;;;;5038825;28;20213;-78
2023/12/05 11:32:14;;;;;;;70.03;29.77;;;;;;;;;;5020093;28;20201;-78
2023/12/05 11:34:58;;;;;;;65.00;29.50;;;;;;;;;;5000403;28;20722;-78
2023/12/05 11:37:51;;;;;;;76.63;32.47;;;;;;;;;;5013702;28;20198;-78
2023/12/05 11:40:16;;;;;;;78.03;32.23;;;;;;;;;;5020069;28;20203;-78
2023/12/05 11:43:09;;;;;;;75.33;32.77;;;;;;;;;;5028744;28;20269;-78
2023/12/05 11:45:39;;;;;;;75.30;31.27;;;;;;;;;;5014185;28;20480;-78
2023/12/05 11:48:06;;;;;;;75.47;33.93;;;;;;;;;;5031600;28;20186;-78
2023/12/05 11:50:42;;;;;;;76.87;32.83;;;;;;;;;;5026935;28;20260;-78
2023/12/05 11:53:11;;;;;;;74.07;32.30;;;;;;;;;;5017318;28;20189;-78
2023/12/05 11:55:39;;;;;;;76.83;33.73;;;;;;;;;;5028599;28;20194;-78
2023/12/05 11:58:04;;;;;;;76.17;32.93;;;;;;;;;;5023933;28;20187;-78
2023/12/05 12:00:31;;;;;;;76.77;33.53;;;;;;;;;;5015748;28;20198;-78
2023/12/05 12:02:57;;;;;;;74.47;34.17;;;;;;;;;;5040723;28;20301;-78
2023/12/05 12:05:23;;;;;;;76.90;33.83;;;;;;;;;;5022652;28;20284;-77
2023/12/05 12:07:56;;;;;;;74.60;33.83;;;;;;;;;;5031899;28;20792;-77
2023/12/05 12:10:22;;;;;;;77.80;33.30;;;;;;;;;;5029645;28;20237;-77
2023/12/05 12:12:49;;;;;;;72.83;32.17;;;;;;;;;;5026108;28;20197;-77
2023/12/05 12:15:16;;;;;;;75.60;31.77;;;;;;;;;;5024830;28;20222;-77
2023/12/05 12:17:43;;;;;;;70.30;31.40;;;;;;;;;;5023115;28;20209;-77
2023/12/05 12:20:16;;;;;;;76.77;32.27;;;;;;;;;;5025529;28;20198;-77
2023/12/05 12:22:43;;;;;;;74.90;31.80;;;;;;;;;;5006558;28;20279;-77
2023/12/05 12:25:13;;;;;;;73.93;31.40;;;;;;;;;;5025057;28;20200;-77
2023/12/05 12:27:40;;;;;;;77.83;33.37;;;;;;;;;;5007911;28;20243;-78
2023/12/05 12:30:13;;;;;;;70.93;30.67;;;;;;;;;;5026954;28;20358;-78
2023/12/05 12:33:13;;;;;;;71.23;31.67;;;;;;;;;;5007208;28;20205;-78
2023/12/05 12:35:38;;;;;;;68.57;28.70;;;;;;;;;;4997523;28;20210;-78
2023/12/05 12:38:04;;;;;;;62.60;27.83;;;;;;;;;;5022377;28;20526;-78
2023/12/05 12:40:29;;;;;;;66.33;28.37;;;;;;;;;;5024252;28;20198;-78
2023/12/05 12:42:55;;;;;;;64.80;29.67;;;;;;;;;;5022927;28;20218;-78
2023/12/05 12:45:25;;;;;;;69.80;30.00;;;;;;;;;;5023425;28;20621;-78
2023/12/05 12:47:51;;;;;;;62.50;28.87;;;;;;;;;;5006804;28;20224;-78
2023/12/05 12:50:17;;;;;;;61.87;28.37;;;;;;;;;;5023390;28;20616;-78
2023/12/05 12:52:43;;;;;;;65.00;28.20;;;;;;;;;;5024964;28;20220;-79
2023/12/05 12:55:09;;;;;;;63.10;27.20;;;;;;;;;;5015362;28;20193;-78
2023/12/05 12:57:35;;;;;;;66.73;27.47;;;;;;;;;;5006546;28;20204;-78
2023/12/05 13:00:04;;;;;;;63.77;28.27;;;;;;;;;;5007334;28;20652;-78
2023/12/05 13:02:31;;;;;;;61.83;27.07;;;;;;;;;;5024140;28;20661;-79
2023/12/05 13:04:57;;;;;;;61.00;26.27;;;;;;;;;;5023736;28;20208;-79
2023/12/05 13:07:25;;;;;;;59.43;25.53;;;;;;;;;;5023738;28;20575;-79
2023/12/05 13:09:51;;;;;;;56.37;25.73;;;;;;;;;;5023172;28;21863;-80
2023/12/05 13:12:21;;;;;;;57.17;25.53;;;;;;;;;;5022468;28;20201;-79
2023/12/05 13:14:50;;;;;;;54.10;23.80;;;;;;;;;;5024515;28;20712;-79
2023/12/05 13:17:16;;;;;;;55.43;23.87;;;;;;;;;;5025305;28;20204;-78
2023/12/05 13:19:42;;;;;;;59.67;25.03;;;;;;;;;;5024611;28;20247;-79
2023/12/05 13:22:07;;;;;;;52.67;24.37;;;;;;;;;;5025019;28;20716;-79
2023/12/05 13:24:32;;;;;;;49.57;24.27;;;;;;;;;;5025364;28;20204;-79
2023/12/05 13:27:01;;;;;;;53.27;24.97;;;;;;;;;;5027681;28;20197;-79
2023/12/05 13:29:27;;;;;;;53.33;23.77;;;;;;;;;;5028276;28;20233;-79
2023/12/05 13:31:54;;;;;;;51.70;23.83;;;;;;;;;;5031672;28;20193;-79
2023/12/05 13:34:20;;;;;;;53.57;23.43;;;;;;;;;;5026508;28;20194;-79
2023/12/05 13:36:46;;;;;;;47.60;22.93;;;;;;;;;;5027153;28;20626;-79
2023/12/05 13:39:13;;;;;;;49.43;23.27;;;;;;;;;;5030515;28;20185;-79
2023/12/05 13:41:41;;;;;;;46.23;22.80;;;;;;;;;;5037304;28;20648;-77
2023/12/05 13:44:09;;;;;;;53.83;24.43;;;;;;;;;;5039525;28;20193;-79
2023/12/05 13:46:34;;;;;;;49.73;23.07;;;;;;;;;;5028753;28;20186;-79
2023/12/05 13:49:04;;;;;;;51.90;24.10;;;;;;;;;;5018381;28;20210;-78
2023/12/05 13:51:34;;;;;;;52.97;23.77;;;;;;;;;;5026560;28;20186;-81
2023/12/05 13:54:02;;;;;;;51.07;23.53;;;;;;;;;;5034430;28;20247;-79
2023/12/05 13:56:28;;;;;;;51.57;24.80;;;;;;;;;;5019835;28;20185;-79
2023/12/05 13:58:53;;;;;;;50.07;24.20;;;;;;;;;;5030692;28;20182;-79
2023/12/05 14:01:19;;;;;;;49.17;23.07;;;;;;;;;;5051635;28;20209;-79
2023/12/05 14:03:45;;;;;;;55.07;24.23;;;;;;;;;;5030064;28;20435;-79
2023/12/05 14:06:11;;;;;;;51.97;24.20;;;;;;;;;;5012934;28;20732;-78
2023/12/05 14:08:36;;;;;;;51.30;24.57;;;;;;;;;;5008813;28;20183;-78
2023/12/05 14:11:02;;;;;;;54.50;23.67;;;;;;;;;;5023497;28;20274;-78
2023/12/05 14:13:28;;;;;;;51.80;22.67;;;;;;;;;;5024081;28;20190;-78
2023/12/05 14:15:53;;;;;;;59.10;23.97;;;;;;;;;;5014002;28;20702;-78